sensor_id;sensor_type;location;lat;lon;timestamp;P1;durP1;ratioP1;P2;durP2;ratioP2
19043;SDS011;9654;52.302;8.120;2023-02-10T00:00:19;85.13;;;31.87;;
19043;SDS011;9654;52.302;8.120;2023-02-10T00:02:46;55.37;;;28.03;;
19043;SDS011;9654;52.302;8.120;2023-02-10T00:05:13;59.87;;;28.57;;
19043;SDS011;9654;52.302;8.120;2023-02-10T00:07:41;56.67;;;27.37;;
19043;SDS011;9654;52.302;8.120;2023-02-10T00:10:08;51.67;;;25.77;;
19043;SDS011;9654;52.302;8.120;2023-02-10T00:12:35;55.13;;;26.00;;
19043;SDS011;9654;52.302;8.120;2023-02-10T00:15:03;59.73;;;26.37;;
19043;SDS011;9654;52.302;8.120;2023-02-10T00:17:31;57.90;;;26.50;;
19043;SDS011;9654;52.302;8.120;2023-02-10T00:19:58;58.60;;;25.80;;
19043;SDS011;9654;52.302;8.120;2023-02-10T00:22:25;57.40;;;24.57;;
19043;SDS011;9654;52.302;8.120;2023-02-10T00:24:53;53.73;;;24.00;;
19043;SDS011;9654;52.302;8.120;2023-02-10T00:27:19;56.30;;;24.70;;
19043;SDS011;9654;52.302;8.120;2023-02-10T00:29:49;55.17;;;23.83;;
19043;SDS011;9654;52.302;8.120;2023-02-10T00:32:16;52.43;;;22.97;;
19043;SDS011;9654;52.302;8.120;2023-02-10T00:34:43;51.33;;;24.33;;
19043;SDS011;9654;52.302;8.120;2023-02-10T00:37:10;57.10;;;24.77;;
19043;SDS011;9654;52.302;8.120;2023-02-10T00:39:37;55.97;;;26.07;;
19043;SDS011;9654;52.302;8.120;2023-02-10T00:42:05;56.83;;;24.27;;
19043;SDS011;9654;52.302;8.120;2023-02-10T00:44:32;53.60;;;25.47;;
19043;SDS011;9654;52.302;8.120;2023-02-10T00:46:59;51.17;;;25.37;;
19043;SDS011;9654;52.302;8.120;2023-02-10T00:49:26;56.63;;;25.30;;
19043;SDS011;9654;52.302;8.120;2023-02-10T00:51:52;54.13;;;25.50;;
19043;SDS011;9654;52.302;8.120;2023-02-10T00:54:19;59.43;;;25.53;;
19043;SDS011;9654;52.302;8.120;2023-02-10T00:56:46;51.47;;;24.60;;
19043;SDS011;9654;52.302;8.120;2023-02-10T00:59:14;50.10;;;23.80;;
19043;SDS011;9654;52.302;8.120;2023-02-10T01:01:41;50.13;;;22.77;;
19043;SDS011;9654;52.302;8.120;2023-02-10T01:04:08;55.63;;;23.60;;
19043;SDS011;9654;52.302;8.120;2023-02-10T01:06:35;59.40;;;24.97;;
19043;SDS011;9654;52.302;8.120;2023-02-10T01:09:01;52.80;;;23.73;;
19043;SDS011;9654;52.302;8.120;2023-02-10T01:11:29;56.83;;;23.23;;
19043;SDS011;9654;52.302;8.120;2023-02-10T01:13:55;57.50;;;25.00;;
19043;SDS011;9654;52.302;8.120;2023-02-10T01:16:24;57.67;;;24.47;;
19043;SDS011;9654;52.302;8.120;2023-02-10T01:18:50;56.33;;;23.77;;
19043;SDS011;9654;52.302;8.120;2023-02-10T01:21:19;54.87;;;25.13;;
19043;SDS011;9654;52.302;8.120;2023-02-10T01:23:46;54.50;;;23.90;;
19043;SDS011;9654;52.302;8.120;2023-02-10T01:26:14;65.10;;;24.83;;
19043;SDS011;9654;52.302;8.120;2023-02-10T01:28:41;58.40;;;24.23;;
19043;SDS011;9654;52.302;8.120;2023-02-10T01:31:09;65.83;;;26.13;;
19043;SDS011;9654;52.302;8.120;2023-02-10T01:33:39;72.93;;;25.93;;
19043;SDS011;9654;52.302;8.120;2023-02-10T01:36:07;56.83;;;25.87;;
19043;SDS011;9654;52.302;8.120;2023-02-10T01:38:36;63.13;;;25.97;;
19043;SDS011;9654;52.302;8.120;2023-02-10T01:41:03;59.37;;;25.10;;
19043;SDS011;9654;52.302;8.120;2023-02-10T01:43:31;60.30;;;27.73;;
19043;SDS011;9654;52.302;8.120;2023-02-10T01:45:58;69.43;;;27.67;;
19043;SDS011;9654;52.302;8.120;2023-02-10T01:48:25;59.47;;;25.90;;
19043;SDS011;9654;52.302;8.120;2023-02-10T01:50:54;61.63;;;26.87;;
19043;SDS011;9654;52.302;8.120;2023-02-10T01:53:26;62.73;;;26.73;;
19043;SDS011;9654;52.302;8.120;2023-02-10T01:55:55;69.93;;;30.50;;
19043;SDS011;9654;52.302;8.120;2023-02-10T01:58:25;68.50;;;28.47;;
19043;SDS011;9654;52.302;8.120;2023-02-10T02:00:54;70.60;;;28.00;;
19043;SDS011;9654;52.302;8.120;2023-02-10T02:03:21;64.13;;;27.97;;
19043;SDS011;9654;52.302;8.120;2023-02-10T02:05:48;78.17;;;32.03;;
19043;SDS011;9654;52.302;8.120;2023-02-10T02:08:16;73.07;;;29.13;;
19043;SDS011;9654;52.302;8.120;2023-02-10T02:10:57;68.07;;;29.83;;
19043;SDS011;9654;52.302;8.120;2023-02-10T02:13:33;74.10;;;31.23;;
19043;SDS011;9654;52.302;8.120;2023-02-10T02:16:10;79.07;;;30.57;;
19043;SDS011;9654;52.302;8.120;2023-02-10T02:18:50;81.83;;;32.77;;
19043;SDS011;9654;52.302;8.120;2023-02-10T02:21:33;82.33;;;32.13;;
19043;SDS011;9654;52.302;8.120;2023-02-10T02:27:15;74.97;;;32.07;;
19043;SDS011;9654;52.302;8.120;2023-02-10T02:30:07;79.30;;;32.67;;
19043;SDS011;9654;52.302;8.120;2023-02-10T02:32:44;80.40;;;33.73;;
19043;SDS011;9654;52.302;8.120;2023-02-10T02:35:17;84.90;;;34.97;;
19043;SDS011;9654;52.302;8.120;2023-02-10T02:37:47;88.03;;;34.60;;
19043;SDS011;9654;52.302;8.120;2023-02-10T02:40:15;81.07;;;34.63;;
19043;SDS011;9654;52.302;8.120;2023-02-10T02:42:43;79.00;;;33.23;;
19043;SDS011;9654;52.302;8.120;2023-02-10T02:45:10;94.40;;;37.33;;
19043;SDS011;9654;52.302;8.120;2023-02-10T02:47:54;90.03;;;34.60;;
19043;SDS011;9654;52.302;8.120;2023-02-10T02:50:30;87.93;;;35.30;;
19043;SDS011;9654;52.302;8.120;2023-02-10T02:53:06;92.80;;;36.60;;
19043;SDS011;9654;52.302;8.120;2023-02-10T02:55:45;79.23;;;34.70;;
19043;SDS011;9654;52.302;8.120;2023-02-10T02:58:20;92.17;;;37.60;;
19043;SDS011;9654;52.302;8.120;2023-02-10T03:00:53;101.13;;;36.90;;
19043;SDS011;9654;52.302;8.120;2023-02-10T03:03:26;94.23;;;37.40;;
19043;SDS011;9654;52.302;8.120;2023-02-10T03:05:53;95.53;;;36.90;;
19043;SDS011;9654;52.302;8.120;2023-02-10T03:08:20;93.17;;;37.17;;
19043;SDS011;9654;52.302;8.120;2023-02-10T03:10:47;92.73;;;37.77;;
19043;SDS011;9654;52.302;8.120;2023-02-10T03:13:13;101.67;;;39.63;;
19043;SDS011;9654;52.302;8.120;2023-02-10T03:15:40;100.07;;;38.70;;
19043;SDS011;9654;52.302;8.120;2023-02-10T03:18:08;103.37;;;41.67;;
19043;SDS011;9654;52.302;8.120;2023-02-10T03:20:36;94.40;;;39.17;;
19043;SDS011;9654;52.302;8.120;2023-02-10T03:23:04;90.23;;;36.60;;
19043;SDS011;9654;52.302;8.120;2023-02-10T03:25:31;84.13;;;37.10;;
19043;SDS011;9654;52.302;8.120;2023-02-10T03:27:58;103.23;;;37.97;;
19043;SDS011;9654;52.302;8.120;2023-02-10T03:30:25;102.43;;;37.93;;
19043;SDS011;9654;52.302;8.120;2023-02-10T03:32:51;104.70;;;39.57;;
19043;SDS011;9654;52.302;8.120;2023-02-10T03:35:19;92.07;;;36.70;;
19043;SDS011;9654;52.302;8.120;2023-02-10T03:37:47;105.00;;;39.93;;
19043;SDS011;9654;52.302;8.120;2023-02-10T03:40:14;97.87;;;38.73;;
19043;SDS011;9654;52.302;8.120;2023-02-10T03:42:41;104.13;;;38.60;;
19043;SDS011;9654;52.302;8.120;2023-02-10T03:45:08;107.27;;;40.53;;
19043;SDS011;9654;52.302;8.120;2023-02-10T03:47:35;167.07;;;69.80;;
19043;SDS011;9654;52.302;8.120;2023-02-10T03:50:01;173.63;;;72.80;;
19043;SDS011;9654;52.302;8.120;2023-02-10T03:52:28;168.93;;;68.37;;
19043;SDS011;9654;52.302;8.120;2023-02-10T03:54:56;213.30;;;92.63;;
19043;SDS011;9654;52.302;8.120;2023-02-10T03:57:23;169.87;;;68.07;;
19043;SDS011;9654;52.302;8.120;2023-02-10T03:59:50;147.93;;;67.80;;
19043;SDS011;9654;52.302;8.120;2023-02-10T04:02:17;155.83;;;67.33;;
19043;SDS011;9654;52.302;8.120;2023-02-10T04:04:43;141.73;;;61.40;;
19043;SDS011;9654;52.302;8.120;2023-02-10T04:07:10;123.70;;;51.80;;
19043;SDS011;9654;52.302;8.120;2023-02-10T04:09:37;105.63;;;46.23;;
19043;SDS011;9654;52.302;8.120;2023-02-10T04:12:05;119.40;;;48.83;;
19043;SDS011;9654;52.302;8.120;2023-02-10T04:14:32;107.57;;;44.97;;
19043;SDS011;9654;52.302;8.120;2023-02-10T04:16:59;104.47;;;41.07;;
19043;SDS011;9654;52.302;8.120;2023-02-10T04:19:26;209.43;;;95.80;;
19043;SDS011;9654;52.302;8.120;2023-02-10T04:21:52;144.03;;;62.77;;
19043;SDS011;9654;52.302;8.120;2023-02-10T04:24:19;132.47;;;55.10;;
19043;SDS011;9654;52.302;8.120;2023-02-10T04:26:46;292.47;;;123.23;;
19043;SDS011;9654;52.302;8.120;2023-02-10T04:29:14;229.17;;;90.13;;
19043;SDS011;9654;52.302;8.120;2023-02-10T04:31:41;231.13;;;88.10;;
19043;SDS011;9654;52.302;8.120;2023-02-10T04:34:07;232.93;;;90.33;;
19043;SDS011;9654;52.302;8.120;2023-02-10T04:36:34;119.20;;;49.73;;
19043;SDS011;9654;52.302;8.120;2023-02-10T04:39:01;163.07;;;65.57;;
19043;SDS011;9654;52.302;8.120;2023-02-10T04:41:28;114.57;;;44.83;;
19043;SDS011;9654;52.302;8.120;2023-02-10T04:43:55;107.13;;;43.87;;
19043;SDS011;9654;52.302;8.120;2023-02-10T04:46:23;109.77;;;43.13;;
19043;SDS011;9654;52.302;8.120;2023-02-10T04:48:49;111.70;;;43.73;;
19043;SDS011;9654;52.302;8.120;2023-02-10T04:51:16;103.37;;;41.43;;
19043;SDS011;9654;52.302;8.120;2023-02-10T04:53:43;104.13;;;40.80;;
19043;SDS011;9654;52.302;8.120;2023-02-10T04:56:12;109.23;;;41.60;;
19043;SDS011;9654;52.302;8.120;2023-02-10T04:58:39;112.73;;;43.63;;
19043;SDS011;9654;52.302;8.120;2023-02-10T05:01:05;118.20;;;43.07;;
19043;SDS011;9654;52.302;8.120;2023-02-10T05:03:33;97.00;;;39.23;;
19043;SDS011;9654;52.302;8.120;2023-02-10T05:06:04;123.67;;;43.33;;
19043;SDS011;9654;52.302;8.120;2023-02-10T05:08:33;102.57;;;40.93;;
19043;SDS011;9654;52.302;8.120;2023-02-10T05:11:03;108.30;;;40.17;;
19043;SDS011;9654;52.302;8.120;2023-02-10T05:13:30;104.10;;;41.47;;
19043;SDS011;9654;52.302;8.120;2023-02-10T05:15:57;108.23;;;40.37;;
19043;SDS011;9654;52.302;8.120;2023-02-10T05:18:23;112.50;;;41.40;;
19043;SDS011;9654;52.302;8.120;2023-02-10T05:20:51;113.70;;;42.00;;
19043;SDS011;9654;52.302;8.120;2023-02-10T05:23:18;106.73;;;42.37;;
19043;SDS011;9654;52.302;8.120;2023-02-10T05:25:46;100.43;;;40.47;;
19043;SDS011;9654;52.302;8.120;2023-02-10T05:28:12;112.43;;;40.43;;
19043;SDS011;9654;52.302;8.120;2023-02-10T05:30:39;110.87;;;43.63;;
19043;SDS011;9654;52.302;8.120;2023-02-10T05:33:06;137.53;;;46.60;;
19043;SDS011;9654;52.302;8.120;2023-02-10T05:35:33;121.83;;;43.67;;
19043;SDS011;9654;52.302;8.120;2023-02-10T05:38:01;130.23;;;44.60;;
19043;SDS011;9654;52.302;8.120;2023-02-10T05:40:28;129.97;;;47.47;;
19043;SDS011;9654;52.302;8.120;2023-02-10T05:42:55;119.27;;;44.50;;
19043;SDS011;9654;52.302;8.120;2023-02-10T05:45:22;131.00;;;45.97;;
19043;SDS011;9654;52.302;8.120;2023-02-10T05:47:49;114.50;;;45.67;;
19043;SDS011;9654;52.302;8.120;2023-02-10T05:50:16;128.60;;;47.17;;
19043;SDS011;9654;52.302;8.120;2023-02-10T05:52:43;122.27;;;46.47;;
19043;SDS011;9654;52.302;8.120;2023-02-10T05:55:11;125.97;;;46.60;;
19043;SDS011;9654;52.302;8.120;2023-02-10T05:57:38;123.83;;;43.30;;
19043;SDS011;9654;52.302;8.120;2023-02-10T06:00:06;141.20;;;46.30;;
19043;SDS011;9654;52.302;8.120;2023-02-10T06:02:34;114.20;;;46.30;;
19043;SDS011;9654;52.302;8.120;2023-02-10T06:05:01;123.43;;;44.90;;
19043;SDS011;9654;52.302;8.120;2023-02-10T06:07:28;130.07;;;45.13;;
19043;SDS011;9654;52.302;8.120;2023-02-10T06:09:54;128.10;;;46.67;;
19043;SDS011;9654;52.302;8.120;2023-02-10T06:12:22;131.57;;;47.93;;
19043;SDS011;9654;52.302;8.120;2023-02-10T06:14:49;148.47;;;46.73;;
19043;SDS011;9654;52.302;8.120;2023-02-10T06:17:16;143.67;;;48.80;;
19043;SDS011;9654;52.302;8.120;2023-02-10T06:19:43;128.47;;;47.47;;
19043;SDS011;9654;52.302;8.120;2023-02-10T06:22:10;125.37;;;46.77;;
19043;SDS011;9654;52.302;8.120;2023-02-10T06:24:37;117.63;;;43.57;;
19043;SDS011;9654;52.302;8.120;2023-02-10T06:27:04;126.50;;;47.13;;
19043;SDS011;9654;52.302;8.120;2023-02-10T06:29:32;122.47;;;46.00;;
19043;SDS011;9654;52.302;8.120;2023-02-10T06:31:59;116.60;;;45.90;;
19043;SDS011;9654;52.302;8.120;2023-02-10T06:34:26;122.03;;;44.30;;
19043;SDS011;9654;52.302;8.120;2023-02-10T06:36:53;119.90;;;43.73;;
19043;SDS011;9654;52.302;8.120;2023-02-10T06:39:19;115.77;;;44.27;;
19043;SDS011;9654;52.302;8.120;2023-02-10T06:41:46;111.83;;;43.40;;
19043;SDS011;9654;52.302;8.120;2023-02-10T06:44:13;114.90;;;43.17;;
19043;SDS011;9654;52.302;8.120;2023-02-10T08:08:39;121.90;;;42.73;;
19043;SDS011;9654;52.302;8.120;2023-02-10T08:11:06;112.17;;;42.17;;
19043;SDS011;9654;52.302;8.120;2023-02-10T08:13:33;128.37;;;45.33;;
19043;SDS011;9654;52.302;8.120;2023-02-10T08:16:02;122.00;;;43.33;;
19043;SDS011;9654;52.302;8.120;2023-02-10T08:18:30;119.40;;;44.70;;
19043;SDS011;9654;52.302;8.120;2023-02-10T08:20:58;135.77;;;42.93;;
19043;SDS011;9654;52.302;8.120;2023-02-10T08:23:27;121.27;;;44.73;;
19043;SDS011;9654;52.302;8.120;2023-02-10T08:25:55;126.77;;;44.87;;
19043;SDS011;9654;52.302;8.120;2023-02-10T08:28:32;129.23;;;46.70;;
19043;SDS011;9654;52.302;8.120;2023-02-10T08:34:46;170.93;;;68.90;;
19043;SDS011;9654;52.302;8.120;2023-02-10T08:37:15;155.13;;;61.80;;
19043;SDS011;9654;52.302;8.120;2023-02-10T08:40:03;181.23;;;72.03;;
19043;SDS011;9654;52.302;8.120;2023-02-10T08:42:34;154.57;;;58.03;;
19043;SDS011;9654;52.302;8.120;2023-02-10T08:45:00;136.10;;;49.23;;
19043;SDS011;9654;52.302;8.120;2023-02-10T08:47:30;146.80;;;53.53;;
19043;SDS011;9654;52.302;8.120;2023-02-10T08:49:58;128.00;;;45.70;;
19043;SDS011;9654;52.302;8.120;2023-02-10T08:52:27;147.80;;;52.40;;
19043;SDS011;9654;52.302;8.120;2023-02-10T08:54:56;126.10;;;46.23;;
19043;SDS011;9654;52.302;8.120;2023-02-10T09:00:01;132.57;;;47.47;;
19043;SDS011;9654;52.302;8.120;2023-02-10T09:02:29;143.77;;;51.80;;
19043;SDS011;9654;52.302;8.120;2023-02-10T09:04:55;138.27;;;47.30;;
19043;SDS011;9654;52.302;8.120;2023-02-10T12:25:24;56.90;;;25.23;;
19043;SDS011;9654;52.302;8.120;2023-02-10T12:31:41;64.20;;;25.67;;
19043;SDS011;9654;52.302;8.120;2023-02-10T12:34:24;51.10;;;23.40;;
19043;SDS011;9654;52.302;8.120;2023-02-10T12:37:37;53.27;;;20.80;;
19043;SDS011;9654;52.302;8.120;2023-02-10T12:47:18;47.80;;;21.77;;
19043;SDS011;9654;52.302;8.120;2023-02-10T12:50:04;51.53;;;19.67;;
19043;SDS011;9654;52.302;8.120;2023-02-10T12:53:18;46.73;;;19.47;;
19043;SDS011;9654;52.302;8.120;2023-02-10T12:55:59;35.83;;;17.17;;
19043;SDS011;9654;52.302;8.120;2023-02-10T12:58:29;44.23;;;17.10;;
19043;SDS011;9654;52.302;8.120;2023-02-10T13:01:04;42.27;;;17.50;;
19043;SDS011;9654;52.302;8.120;2023-02-10T13:03:37;42.77;;;17.67;;
19043;SDS011;9654;52.302;8.120;2023-02-10T13:06:10;40.07;;;16.87;;
19043;SDS011;9654;52.302;8.120;2023-02-10T13:08:47;46.00;;;16.67;;
19043;SDS011;9654;52.302;8.120;2023-02-10T13:11:19;38.10;;;16.23;;
19043;SDS011;9654;52.302;8.120;2023-02-10T13:13:53;40.80;;;15.23;;
19043;SDS011;9654;52.302;8.120;2023-02-10T13:16:22;34.80;;;15.83;;
19043;SDS011;9654;52.302;8.120;2023-02-10T13:18:54;36.63;;;15.77;;
19043;SDS011;9654;52.302;8.120;2023-02-10T13:21:27;40.70;;;16.27;;
19043;SDS011;9654;52.302;8.120;2023-02-10T13:23:58;36.27;;;13.47;;
19043;SDS011;9654;52.302;8.120;2023-02-10T13:26:41;30.30;;;14.23;;
19043;SDS011;9654;52.302;8.120;2023-02-10T13:29:22;36.93;;;14.30;;
19043;SDS011;9654;52.302;8.120;2023-02-10T13:35:04;33.17;;;13.07;;
19043;SDS011;9654;52.302;8.120;2023-02-10T13:37:34;34.77;;;12.37;;
19043;SDS011;9654;52.302;8.120;2023-02-10T13:40:04;32.33;;;11.83;;
19043;SDS011;9654;52.302;8.120;2023-02-10T13:42:39;25.90;;;10.17;;
19043;SDS011;9654;52.302;8.120;2023-02-10T13:45:14;47.03;;;17.27;;
19043;SDS011;9654;52.302;8.120;2023-02-10T13:47:47;27.67;;;11.73;;
19043;SDS011;9654;52.302;8.120;2023-02-10T13:50:21;27.37;;;10.47;;
19043;SDS011;9654;52.302;8.120;2023-02-10T13:52:52;24.20;;;10.50;;
19043;SDS011;9654;52.302;8.120;2023-02-10T13:55:27;25.20;;;10.23;;
19043;SDS011;9654;52.302;8.120;2023-02-10T14:00:58;31.50;;;11.50;;
19043;SDS011;9654;52.302;8.120;2023-02-10T14:03:26;25.87;;;10.17;;
19043;SDS011;9654;52.302;8.120;2023-02-10T14:05:56;26.37;;;9.67;;
19043;SDS011;9654;52.302;8.120;2023-02-10T14:08:26;30.00;;;10.00;;
19043;SDS011;9654;52.302;8.120;2023-02-10T14:10:59;23.07;;;9.57;;
19043;SDS011;9654;52.302;8.120;2023-02-10T14:13:31;20.33;;;9.20;;
19043;SDS011;9654;52.302;8.120;2023-02-10T14:16:00;28.27;;;9.77;;
19043;SDS011;9654;52.302;8.120;2023-02-10T14:18:29;23.63;;;10.03;;
19043;SDS011;9654;52.302;8.120;2023-02-10T14:21:00;28.57;;;10.43;;
19043;SDS011;9654;52.302;8.120;2023-02-10T14:23:29;21.97;;;9.93;;
19043;SDS011;9654;52.302;8.120;2023-02-10T14:25:58;31.67;;;10.77;;
19043;SDS011;9654;52.302;8.120;2023-02-10T14:28:28;30.67;;;13.13;;
19043;SDS011;9654;52.302;8.120;2023-02-10T14:31:00;26.80;;;11.73;;
19043;SDS011;9654;52.302;8.120;2023-02-10T14:33:31;29.13;;;13.70;;
19043;SDS011;9654;52.302;8.120;2023-02-10T14:36:02;46.30;;;19.77;;
19043;SDS011;9654;52.302;8.120;2023-02-10T14:38:33;32.67;;;13.83;;
19043;SDS011;9654;52.302;8.120;2023-02-10T14:41:00;30.17;;;12.60;;
19043;SDS011;9654;52.302;8.120;2023-02-10T14:43:29;30.87;;;12.97;;
19043;SDS011;9654;52.302;8.120;2023-02-10T14:45:59;25.60;;;11.30;;
19043;SDS011;9654;52.302;8.120;2023-02-10T14:48:27;30.37;;;11.80;;
19043;SDS011;9654;52.302;8.120;2023-02-10T14:51:01;29.43;;;13.07;;
19043;SDS011;9654;52.302;8.120;2023-02-10T14:53:32;29.47;;;10.83;;
19043;SDS011;9654;52.302;8.120;2023-02-10T14:56:02;30.10;;;12.77;;
19043;SDS011;9654;52.302;8.120;2023-02-10T14:58:30;30.37;;;10.03;;
19043;SDS011;9654;52.302;8.120;2023-02-10T15:00:58;24.37;;;10.83;;
19043;SDS011;9654;52.302;8.120;2023-02-10T15:03:30;23.27;;;10.73;;
19043;SDS011;9654;52.302;8.120;2023-02-10T15:05:58;30.73;;;12.80;;
19043;SDS011;9654;52.302;8.120;2023-02-10T15:08:32;23.00;;;11.00;;
19043;SDS011;9654;52.302;8.120;2023-02-10T15:11:03;31.60;;;10.47;;
19043;SDS011;9654;52.302;8.120;2023-02-10T15:13:34;30.87;;;9.47;;
19043;SDS011;9654;52.302;8.120;2023-02-10T15:16:06;22.60;;;8.07;;
19043;SDS011;9654;52.302;8.120;2023-02-10T15:18:36;23.67;;;8.63;;
19043;SDS011;9654;52.302;8.120;2023-02-10T15:21:21;21.73;;;8.20;;
19043;SDS011;9654;52.302;8.120;2023-02-10T15:23:53;21.00;;;8.63;;
19043;SDS011;9654;52.302;8.120;2023-02-10T15:26:22;21.47;;;8.47;;
19043;SDS011;9654;52.302;8.120;2023-02-10T15:29:03;32.30;;;10.00;;
19043;SDS011;9654;52.302;8.120;2023-02-10T15:31:31;24.13;;;10.03;;
19043;SDS011;9654;52.302;8.120;2023-02-10T15:33:59;34.80;;;10.40;;
19043;SDS011;9654;52.302;8.120;2023-02-10T15:36:27;32.93;;;11.50;;
19043;SDS011;9654;52.302;8.120;2023-02-10T15:38:58;27.30;;;10.37;;
19043;SDS011;9654;52.302;8.120;2023-02-10T15:41:30;26.50;;;9.07;;
19043;SDS011;9654;52.302;8.120;2023-02-10T15:44:03;28.73;;;9.57;;
19043;SDS011;9654;52.302;8.120;2023-02-10T15:46:51;31.43;;;11.60;;
19043;SDS011;9654;52.302;8.120;2023-02-10T15:49:20;32.07;;;11.10;;
19043;SDS011;9654;52.302;8.120;2023-02-10T15:51:48;36.57;;;11.57;;
19043;SDS011;9654;52.302;8.120;2023-02-10T15:54:18;26.37;;;9.70;;
19043;SDS011;9654;52.302;8.120;2023-02-10T15:56:55;26.63;;;10.37;;
19043;SDS011;9654;52.302;8.120;2023-02-10T15:59:22;29.70;;;9.73;;
19043;SDS011;9654;52.302;8.120;2023-02-10T16:01:52;30.53;;;10.67;;
19043;SDS011;9654;52.302;8.120;2023-02-10T16:04:20;28.40;;;10.10;;
19043;SDS011;9654;52.302;8.120;2023-02-10T16:06:46;28.03;;;10.47;;
19043;SDS011;9654;52.302;8.120;2023-02-10T16:09:13;29.40;;;10.37;;
19043;SDS011;9654;52.302;8.120;2023-02-10T16:11:42;34.57;;;9.77;;
19043;SDS011;9654;52.302;8.120;2023-02-10T16:14:09;30.80;;;9.80;;
19043;SDS011;9654;52.302;8.120;2023-02-10T16:16:37;33.20;;;10.77;;
19043;SDS011;9654;52.302;8.120;2023-02-10T16:19:08;43.30;;;16.07;;
19043;SDS011;9654;52.302;8.120;2023-02-10T16:21:37;27.57;;;11.03;;
19043;SDS011;9654;52.302;8.120;2023-02-10T16:24:04;31.77;;;13.37;;
19043;SDS011;9654;52.302;8.120;2023-02-10T16:26:32;31.13;;;10.70;;
19043;SDS011;9654;52.302;8.120;2023-02-10T16:29:00;33.87;;;10.47;;
19043;SDS011;9654;52.302;8.120;2023-02-10T16:31:27;35.37;;;10.93;;
19043;SDS011;9654;52.302;8.120;2023-02-10T16:33:54;22.70;;;9.53;;
19043;SDS011;9654;52.302;8.120;2023-02-10T16:36:20;47.67;;;22.03;;
19043;SDS011;9654;52.302;8.120;2023-02-10T16:38:47;63.40;;;29.03;;
19043;SDS011;9654;52.302;8.120;2023-02-10T16:41:14;45.90;;;19.17;;
19043;SDS011;9654;52.302;8.120;2023-02-10T16:43:41;34.67;;;15.50;;
19043;SDS011;9654;52.302;8.120;2023-02-10T16:46:09;36.23;;;12.57;;
19043;SDS011;9654;52.302;8.120;2023-02-10T16:48:40;32.10;;;14.37;;
19043;SDS011;9654;52.302;8.120;2023-02-10T16:51:07;42.30;;;19.43;;
19043;SDS011;9654;52.302;8.120;2023-02-10T16:53:33;33.40;;;12.63;;
19043;SDS011;9654;52.302;8.120;2023-02-10T16:56:00;33.47;;;11.87;;
19043;SDS011;9654;52.302;8.120;2023-02-10T16:58:27;34.90;;;12.50;;
19043;SDS011;9654;52.302;8.120;2023-02-10T17:00:54;26.07;;;10.23;;
19043;SDS011;9654;52.302;8.120;2023-02-10T17:03:22;32.23;;;11.03;;
19043;SDS011;9654;52.302;8.120;2023-02-10T17:05:50;35.53;;;10.57;;
19043;SDS011;9654;52.302;8.120;2023-02-10T17:08:16;31.77;;;11.10;;
19043;SDS011;9654;52.302;8.120;2023-02-10T17:10:43;28.03;;;12.13;;
19043;SDS011;9654;52.302;8.120;2023-02-10T17:13:10;26.80;;;11.23;;
19043;SDS011;9654;52.302;8.120;2023-02-10T17:15:37;28.63;;;10.97;;
19043;SDS011;9654;52.302;8.120;2023-02-10T17:18:04;30.10;;;10.63;;
19043;SDS011;9654;52.302;8.120;2023-02-10T17:20:33;34.80;;;12.77;;
19043;SDS011;9654;52.302;8.120;2023-02-10T17:23:00;30.43;;;12.63;;
19043;SDS011;9654;52.302;8.120;2023-02-10T17:25:27;24.73;;;10.87;;
19043;SDS011;9654;52.302;8.120;2023-02-10T17:27:55;36.10;;;12.77;;
19043;SDS011;9654;52.302;8.120;2023-02-10T17:30:22;37.17;;;11.53;;
19043;SDS011;9654;52.302;8.120;2023-02-10T17:32:50;33.67;;;11.80;;
19043;SDS011;9654;52.302;8.120;2023-02-10T17:35:18;35.50;;;12.97;;
19043;SDS011;9654;52.302;8.120;2023-02-10T17:37:47;36.10;;;12.63;;
19043;SDS011;9654;52.302;8.120;2023-02-10T17:40:29;38.50;;;13.63;;
19043;SDS011;9654;52.302;8.120;2023-02-10T17:42:58;36.40;;;14.07;;
19043;SDS011;9654;52.302;8.120;2023-02-10T17:45:25;40.37;;;15.53;;
19043;SDS011;9654;52.302;8.120;2023-02-10T17:47:52;46.67;;;16.43;;
19043;SDS011;9654;52.302;8.120;2023-02-10T17:50:18;42.37;;;16.53;;
19043;SDS011;9654;52.302;8.120;2023-02-10T17:52:45;48.17;;;18.23;;
19043;SDS011;9654;52.302;8.120;2023-02-10T17:55:13;42.13;;;16.23;;
19043;SDS011;9654;52.302;8.120;2023-02-10T17:57:40;40.63;;;16.30;;
19043;SDS011;9654;52.302;8.120;2023-02-10T18:00:07;38.43;;;16.53;;
19043;SDS011;9654;52.302;8.120;2023-02-10T18:02:35;37.57;;;15.83;;
19043;SDS011;9654;52.302;8.120;2023-02-10T18:05:02;40.60;;;17.70;;
19043;SDS011;9654;52.302;8.120;2023-02-10T18:07:29;40.00;;;17.43;;
19043;SDS011;9654;52.302;8.120;2023-02-10T18:09:56;53.37;;;22.27;;
19043;SDS011;9654;52.302;8.120;2023-02-10T18:12:24;62.17;;;26.33;;
19043;SDS011;9654;52.302;8.120;2023-02-10T18:14:51;49.73;;;19.50;;
19043;SDS011;9654;52.302;8.120;2023-02-10T18:17:18;49.83;;;19.20;;
19043;SDS011;9654;52.302;8.120;2023-02-10T18:19:46;50.93;;;19.97;;
19043;SDS011;9654;52.302;8.120;2023-02-10T18:22:12;52.60;;;18.40;;
19043;SDS011;9654;52.302;8.120;2023-02-10T18:24:39;43.70;;;19.47;;
19043;SDS011;9654;52.302;8.120;2023-02-10T18:27:06;46.57;;;19.83;;
19043;SDS011;9654;52.302;8.120;2023-02-10T18:29:34;51.63;;;23.37;;
19043;SDS011;9654;52.302;8.120;2023-02-10T18:32:01;47.93;;;19.10;;
19043;SDS011;9654;52.302;8.120;2023-02-10T18:34:29;50.20;;;20.73;;
19043;SDS011;9654;52.302;8.120;2023-02-10T18:36:55;50.40;;;21.70;;
19043;SDS011;9654;52.302;8.120;2023-02-10T18:39:22;49.27;;;22.40;;
19043;SDS011;9654;52.302;8.120;2023-02-10T18:41:49;48.37;;;22.17;;
19043;SDS011;9654;52.302;8.120;2023-02-10T18:44:16;49.47;;;23.03;;
19043;SDS011;9654;52.302;8.120;2023-02-10T18:46:46;52.63;;;25.47;;
19043;SDS011;9654;52.302;8.120;2023-02-10T18:49:13;55.97;;;23.53;;
19043;SDS011;9654;52.302;8.120;2023-02-10T18:51:39;55.80;;;23.23;;
19043;SDS011;9654;52.302;8.120;2023-02-10T18:54:06;49.07;;;22.13;;
19043;SDS011;9654;52.302;8.120;2023-02-10T18:56:33;54.70;;;24.30;;
19043;SDS011;9654;52.302;8.120;2023-02-10T18:59:00;54.40;;;22.77;;
19043;SDS011;9654;52.302;8.120;2023-02-10T19:01:28;56.17;;;26.20;;
19043;SDS011;9654;52.302;8.120;2023-02-10T19:03:59;59.63;;;24.43;;
19043;SDS011;9654;52.302;8.120;2023-02-10T19:06:27;59.13;;;27.47;;
19043;SDS011;9654;52.302;8.120;2023-02-10T19:08:54;54.27;;;25.53;;
19043;SDS011;9654;52.302;8.120;2023-02-10T19:11:22;57.37;;;24.37;;
19043;SDS011;9654;52.302;8.120;2023-02-10T19:13:49;54.90;;;25.30;;
19043;SDS011;9654;52.302;8.120;2023-02-10T19:16:16;62.13;;;25.23;;
19043;SDS011;9654;52.302;8.120;2023-02-10T19:18:45;56.23;;;27.10;;
19043;SDS011;9654;52.302;8.120;2023-02-10T19:21:15;54.13;;;26.13;;
19043;SDS011;9654;52.302;8.120;2023-02-10T19:23:44;53.83;;;26.30;;
19043;SDS011;9654;52.302;8.120;2023-02-10T19:26:11;56.77;;;26.00;;
19043;SDS011;9654;52.302;8.120;2023-02-10T19:28:43;55.77;;;27.50;;
19043;SDS011;9654;52.302;8.120;2023-02-10T19:31:10;64.50;;;28.33;;
19043;SDS011;9654;52.302;8.120;2023-02-10T19:33:39;57.30;;;26.50;;
19043;SDS011;9654;52.302;8.120;2023-02-10T19:36:18;53.23;;;25.73;;
19043;SDS011;9654;52.302;8.120;2023-02-10T19:38:47;55.43;;;25.13;;
19043;SDS011;9654;52.302;8.120;2023-02-10T19:41:16;52.40;;;25.73;;
19043;SDS011;9654;52.302;8.120;2023-02-10T19:43:44;54.23;;;25.80;;
19043;SDS011;9654;52.302;8.120;2023-02-10T19:46:12;54.70;;;26.07;;
19043;SDS011;9654;52.302;8.120;2023-02-10T19:48:40;51.07;;;24.83;;